createdAt,value
2022-10-02T00:02:18.064Z,8.84
2022-10-02T00:04:53.499Z,8.78
2022-10-02T00:07:27.654Z,8.77
2022-10-02T00:09:59.695Z,8.74
2022-10-02T00:12:30.785Z,8.69
2022-10-02T00:15:04.748Z,8.61
2022-10-02T00:17:42.499Z,8.59
2022-10-02T00:20:15.269Z,8.52
2022-10-02T00:22:50.406Z,8.38
2022-10-02T00:25:27.762Z,8.31
2022-10-02T00:28:21.060Z,8.30
2022-10-02T00:31:20.741Z,8.20
2022-10-02T00:33:59.127Z,8.25
2022-10-02T00:36:38.868Z,8.26
2022-10-02T00:39:19.194Z,8.13
2022-10-02T00:42:24.725Z,8.27
2022-10-02T00:45:21.273Z,8.22
2022-10-02T00:48:00.352Z,8.21
2022-10-02T00:50:41.655Z,8.19
2022-10-02T00:53:21.529Z,8.14
2022-10-02T00:56:03.445Z,8.11
2022-10-02T00:59:00.293Z,8.15
2022-10-02T01:01:37.822Z,8.19
2022-10-02T01:04:10.917Z,8.15
2022-10-02T01:06:43.642Z,8.17
2022-10-02T01:09:12.689Z,8.16
2022-10-02T01:11:41.046Z,8.08
2022-10-02T01:14:09.262Z,8.06
2022-10-02T01:16:37.696Z,8.08
2022-10-02T01:19:09.972Z,8.10
2022-10-02T01:21:47.567Z,8.06
2022-10-02T01:24:21.562Z,8.00
2022-10-02T01:26:50.983Z,8.04
2022-10-02T01:29:18.966Z,7.98
2022-10-02T01:31:47.197Z,7.92
2022-10-02T01:34:16.138Z,7.96
2022-10-02T01:36:44.737Z,7.80
2022-10-02T01:39:13.022Z,7.82
2022-10-02T01:41:43.756Z,7.95
2022-10-02T01:44:14.740Z,8.07
2022-10-02T01:46:51.364Z,8.14
2022-10-02T01:49:34.483Z,8.20
2022-10-02T01:52:24.670Z,8.33
2022-10-02T01:55:15.064Z,8.37
2022-10-02T01:57:57.788Z,8.41
2022-10-02T02:00:31.574Z,8.43
2022-10-02T02:03:14.838Z,8.46
2022-10-02T02:05:51.117Z,8.42
2022-10-02T02:08:28.696Z,8.55
2022-10-02T02:11:11.181Z,9.07
2022-10-02T02:13:46.838Z,9.44
2022-10-02T02:16:28.669Z,9.86
2022-10-02T02:19:05.093Z,9.96
2022-10-02T02:21:36.306Z,10.13
2022-10-02T02:24:11.002Z,10.13
2022-10-02T02:26:44.039Z,10.16
2022-10-02T02:29:15.183Z,10.11
2022-10-02T02:31:50.830Z,10.18
2022-10-02T02:34:23.463Z,10.21
2022-10-02T02:36:58.013Z,10.22
2022-10-02T02:39:32.717Z,10.35
2022-10-02T02:42:06.242Z,10.27
2022-10-02T02:44:39.750Z,10.29
2022-10-02T02:47:15.297Z,10.39
2022-10-02T02:49:52.117Z,10.44
2022-10-02T02:52:26.109Z,10.44
2022-10-02T02:54:59.856Z,10.51
2022-10-02T02:57:33.562Z,10.51
2022-10-02T03:00:04.070Z,10.44
2022-10-02T03:02:33.798Z,10.36
2022-10-02T03:05:01.835Z,10.34
2022-10-02T03:07:29.804Z,10.30
2022-10-02T03:10:09.654Z,10.22
2022-10-02T03:12:50.540Z,10.33
2022-10-02T03:15:29.338Z,10.41
2022-10-02T03:18:24.434Z,10.58
2022-10-02T03:21:04.533Z,10.62
2022-10-02T03:23:40.069Z,10.72
2022-10-02T03:26:14.428Z,10.81
2022-10-02T03:28:57.289Z,10.91
2022-10-02T03:31:29.016Z,10.95
2022-10-02T03:34:00.270Z,10.95
2022-10-02T03:36:29.010Z,10.99
2022-10-02T03:39:23.692Z,11.01
2022-10-02T03:41:49.543Z,11.01
2022-10-02T03:44:17.681Z,10.95
2022-10-02T03:46:45.827Z,11.07
2022-10-02T03:49:15.439Z,11.06
2022-10-02T03:51:43.463Z,11.06
2022-10-02T03:54:17.655Z,11.04
2022-10-02T03:56:54.582Z,11.05
2022-10-02T03:59:38.176Z,11.15
2022-10-02T04:02:16.854Z,11.08
2022-10-02T04:04:51.128Z,11.20
2022-10-02T04:07:25.873Z,11.06
2022-10-02T04:10:04.245Z,11.13
2022-10-02T04:12:46.458Z,11.28
2022-10-02T04:15:41.625Z,11.00
2022-10-02T04:18:17.688Z,11.06
2022-10-02T04:20:51.012Z,11.33
2022-10-02T04:23:23.882Z,11.34
2022-10-02T04:25:55.750Z,11.26
2022-10-02T04:28:27.791Z,11.35
2022-10-02T04:30:56.606Z,11.64
2022-10-02T04:33:25.894Z,11.61
2022-10-02T04:36:03.524Z,11.45
2022-10-02T04:38:58.768Z,11.53
2022-10-02T04:41:41.601Z,11.47
2022-10-02T04:44:21.221Z,11.24
2022-10-02T04:47:04.968Z,11.17
2022-10-02T04:49:47.787Z,10.93
2022-10-02T04:52:46.372Z,10.85
2022-10-02T04:55:38.519Z,10.77
2022-10-02T04:58:24.435Z,10.70
2022-10-02T05:01:02.600Z,10.57
2022-10-02T05:03:50.034Z,10.57
2022-10-02T05:06:33.316Z,10.51
2022-10-02T05:09:11.768Z,10.44
2022-10-02T05:11:59.374Z,10.40
2022-10-02T05:14:52.308Z,10.40
2022-10-02T05:17:43.749Z,10.38
2022-10-02T05:20:30.273Z,10.36
2022-10-02T05:23:22.484Z,10.09
2022-10-02T05:25:55.061Z,9.92
2022-10-02T05:28:56.595Z,10.31
2022-10-02T05:31:38.345Z,10.20
2022-10-02T05:34:40.566Z,10.29
2022-10-02T05:37:32.571Z,10.32
2022-10-02T05:40:11.277Z,10.35
2022-10-02T05:42:46.100Z,10.37
2022-10-02T05:45:25.387Z,10.39
2022-10-02T05:47:56.806Z,10.26
2022-10-02T05:50:30.722Z,10.36
2022-10-02T05:53:02.069Z,10.45
2022-10-02T05:55:36.235Z,10.47
2022-10-02T05:58:09.310Z,10.52
2022-10-02T06:00:44.736Z,10.56
2022-10-02T06:03:18.900Z,10.62
2022-10-02T06:05:55.539Z,10.66
2022-10-02T06:08:31.670Z,10.71
2022-10-02T06:11:08.219Z,10.74
2022-10-02T06:13:42.478Z,10.73
2022-10-02T06:16:20.021Z,10.87
2022-10-02T06:18:55.569Z,10.93
2022-10-02T06:21:34.230Z,10.95
2022-10-02T06:24:07.168Z,10.90
2022-10-02T06:26:43.230Z,10.99
2022-10-02T06:29:21.582Z,10.86
2022-10-02T06:32:00.132Z,11.08
2022-10-02T06:34:29.724Z,11.14
2022-10-02T06:37:19.338Z,11.13
2022-10-02T06:40:02.140Z,11.22
2022-10-02T06:42:41.726Z,11.21
2022-10-02T06:45:22.388Z,11.31
2022-10-02T06:48:03.055Z,11.39
2022-10-02T06:50:49.892Z,11.51
2022-10-02T06:53:42.887Z,11.52
2022-10-02T06:56:28.326Z,11.32
2022-10-02T06:59:09.829Z,11.64
2022-10-02T07:01:53.764Z,11.76
2022-10-02T07:04:41.583Z,11.90
2022-10-02T07:07:58.067Z,12.02
2022-10-02T07:10:36.044Z,11.99
2022-10-02T07:13:27.628Z,12.14
2022-10-02T07:16:12.271Z,12.18
2022-10-02T07:18:57.173Z,12.31
2022-10-02T07:21:39.118Z,12.39
2022-10-02T07:24:25.992Z,12.50
2022-10-02T07:26:57.161Z,12.61
2022-10-02T07:29:38.660Z,12.71
2022-10-02T07:32:32.332Z,12.79
2022-10-02T07:35:11.820Z,12.82
2022-10-02T07:37:51.828Z,12.92
2022-10-02T07:40:32.528Z,12.90
2022-10-02T07:43:15.319Z,13.03
2022-10-02T07:45:49.342Z,12.99
2022-10-02T07:48:36.412Z,12.82
2022-10-02T07:51:33.623Z,12.64
2022-10-02T07:54:16.552Z,12.50
2022-10-02T07:56:50.794Z,12.42
2022-10-02T07:59:20.599Z,12.14
2022-10-02T08:01:51.637Z,12.36
2022-10-02T08:04:27.137Z,12.47
2022-10-02T08:07:01.111Z,12.69
2022-10-02T08:09:34.575Z,12.92
2022-10-02T08:12:07.826Z,13.17
2022-10-02T08:14:41.259Z,13.36
2022-10-02T08:17:20.008Z,13.48
2022-10-02T08:19:52.710Z,13.66
2022-10-02T08:22:26.656Z,13.80
2022-10-02T08:24:59.042Z,13.93
2022-10-02T08:27:36.663Z,14.02
2022-10-02T08:30:06.925Z,14.25
2022-10-02T08:32:47.756Z,14.44
2022-10-02T08:35:17.790Z,14.66
2022-10-02T08:38:05.164Z,14.93
2022-10-02T08:41:27.144Z,15.25
2022-10-02T08:44:35.987Z,15.53
2022-10-02T08:47:55.158Z,15.68
2022-10-02T08:50:53.130Z,15.91
2022-10-02T08:53:46.569Z,15.70
2022-10-02T08:56:26.409Z,15.55
2022-10-02T08:59:28.050Z,15.51
2022-10-02T09:02:29.110Z,15.43
2022-10-02T09:05:26.603Z,15.42
2022-10-02T09:08:34.324Z,15.25
2022-10-02T09:11:37.279Z,15.02
2022-10-02T09:14:22.939Z,14.98
2022-10-02T09:17:13.955Z,15.05
2022-10-02T09:19:56.258Z,15.11
2022-10-02T09:22:52.533Z,15.38
2022-10-02T09:25:35.885Z,15.27
2022-10-02T09:28:46.832Z,15.32
2022-10-02T09:31:56.340Z,15.36
2022-10-02T09:35:03.096Z,15.23
2022-10-02T09:38:05.531Z,15.26
2022-10-02T09:41:18.574Z,15.36
2022-10-02T09:44:24.333Z,15.35
2022-10-02T09:47:25.025Z,15.48
2022-10-02T09:50:41.117Z,15.74
2022-10-02T09:53:45.773Z,15.87
2022-10-02T09:57:03.157Z,16.24
2022-10-02T10:00:03.952Z,16.52
2022-10-02T10:03:10.258Z,16.62
2022-10-02T10:05:58.946Z,16.72
2022-10-02T10:09:14.542Z,16.73
2022-10-02T10:12:09.743Z,16.56
2022-10-02T10:15:23.664Z,16.42
2022-10-02T10:18:30.619Z,16.29
2022-10-02T10:21:58.425Z,16.27
2022-10-02T10:25:13.520Z,16.14
2022-10-02T10:28:20.142Z,16.10
2022-10-02T10:31:22.416Z,15.85
2022-10-02T10:34:38.613Z,15.56
2022-10-02T10:37:26.765Z,15.36
2022-10-02T10:40:17.833Z,15.36
2022-10-02T10:43:17.041Z,15.21
2022-10-02T10:46:24.780Z,14.99
2022-10-02T10:49:16.875Z,14.81
2022-10-02T10:51:50.052Z,14.67
2022-10-02T10:54:44.958Z,14.69
2022-10-02T10:57:23.797Z,14.65
2022-10-02T11:00:14.041Z,14.69
2022-10-02T11:03:09.105Z,14.62
2022-10-02T11:06:23.310Z,14.65
2022-10-02T11:09:48.441Z,14.47
2022-10-02T11:12:39.272Z,14.97
2022-10-02T11:15:28.200Z,15.18
2022-10-02T11:18:28.842Z,15.26
2022-10-02T11:21:23.302Z,15.35
2022-10-02T11:24:05.570Z,15.33
2022-10-02T11:27:04.077Z,15.35
2022-10-02T11:30:07.420Z,15.34
2022-10-02T11:33:04.130Z,15.28
2022-10-02T11:35:49.261Z,15.08
2022-10-02T11:38:35.482Z,14.89
2022-10-02T11:41:28.855Z,14.86
2022-10-02T11:44:16.181Z,14.67
2022-10-02T11:47:23.264Z,14.73
2022-10-02T11:50:15.235Z,14.72
2022-10-02T11:53:06.601Z,14.75
2022-10-02T11:55:50.595Z,14.76
2022-10-02T11:58:32.681Z,14.59
2022-10-02T12:01:13.802Z,14.51
2022-10-02T12:04:10.368Z,14.34
2022-10-02T12:06:55.489Z,14.40
2022-10-02T12:09:34.329Z,14.52
2022-10-02T12:12:17.074Z,14.53
2022-10-02T12:14:52.106Z,14.55
2022-10-02T12:17:56.076Z,14.57
2022-10-02T12:20:57.594Z,14.59
2022-10-02T12:23:51.725Z,14.53
2022-10-02T12:26:52.929Z,14.49
2022-10-02T12:29:32.392Z,14.51
2022-10-02T12:32:08.265Z,14.53
2022-10-02T12:34:46.622Z,14.63
2022-10-02T12:37:21.818Z,14.69
2022-10-02T12:40:03.419Z,14.84
2022-10-02T12:42:53.937Z,14.79
2022-10-02T12:45:58.848Z,14.92
2022-10-02T12:48:47.082Z,15.01
2022-10-02T12:51:35.438Z,15.02
2022-10-02T12:54:51.455Z,14.99
2022-10-02T12:57:55.875Z,15.35
2022-10-02T13:00:31.496Z,15.61
2022-10-02T13:03:34.880Z,15.87
2022-10-02T13:06:42.573Z,16.03
2022-10-02T13:09:37.719Z,16.22
2022-10-02T13:12:28.287Z,16.35
2022-10-02T13:15:22.080Z,16.28
2022-10-02T13:18:01.969Z,16.33
2022-10-02T13:20:41.962Z,16.26
2022-10-02T13:23:25.276Z,16.25
2022-10-02T13:26:12.923Z,16.22
2022-10-02T13:28:55.647Z,16.19
2022-10-02T13:31:40.497Z,16.08
2022-10-02T13:34:26.200Z,15.97
2022-10-02T13:37:07.563Z,15.58
2022-10-02T13:39:54.077Z,15.31
2022-10-02T13:42:37.177Z,15.13
2022-10-02T13:45:15.943Z,15.00
2022-10-02T13:48:00.271Z,14.84
2022-10-02T13:50:45.328Z,14.80
2022-10-02T13:53:42.303Z,14.69
2022-10-02T13:56:22.748Z,14.66
2022-10-02T13:59:12.578Z,14.49
2022-10-02T14:01:55.023Z,14.39
2022-10-02T14:04:37.720Z,14.33
2022-10-02T14:07:21.569Z,14.24
2022-10-02T14:10:00.275Z,14.17
2022-10-02T14:12:35.273Z,14.11
2022-10-02T14:15:27.272Z,14.39
2022-10-02T14:18:14.241Z,14.38
2022-10-02T14:20:52.242Z,14.73
2022-10-02T14:23:41.585Z,15.00
2022-10-02T14:26:19.904Z,15.04
2022-10-02T14:29:08.812Z,15.00
2022-10-02T14:31:58.912Z,15.02
2022-10-02T14:34:46.199Z,15.19
2022-10-02T14:37:43.436Z,15.19
2022-10-02T14:40:15.620Z,15.11
2022-10-02T14:42:58.751Z,15.03
2022-10-02T14:45:46.445Z,15.15
2022-10-02T14:48:30.644Z,15.16
2022-10-02T14:51:27.502Z,15.10
2022-10-02T14:54:23.279Z,15.05
2022-10-02T14:57:19.536Z,15.10
2022-10-02T15:00:14.881Z,14.92
2022-10-02T15:03:12.738Z,14.87
2022-10-02T15:05:57.070Z,14.73
2022-10-02T15:08:31.431Z,14.40
2022-10-02T15:11:01.123Z,14.41
2022-10-02T15:13:38.932Z,14.21
2022-10-02T15:16:34.126Z,14.11
2022-10-02T15:19:11.547Z,14.01
2022-10-02T15:21:46.968Z,13.97
2022-10-02T15:24:31.514Z,13.81
2022-10-02T15:27:22.061Z,13.58
2022-10-02T15:30:08.847Z,13.59
2022-10-02T15:33:07.466Z,13.54
2022-10-02T15:35:57.297Z,13.41
2022-10-02T15:38:41.860Z,13.04
2022-10-02T15:41:38.372Z,13.19
2022-10-02T15:44:22.587Z,13.18
2022-10-02T15:47:05.987Z,13.03
2022-10-02T15:49:52.107Z,13.05
2022-10-02T15:52:33.313Z,12.98
2022-10-02T15:55:19.331Z,12.83
2022-10-02T15:58:09.866Z,12.80
2022-10-02T16:01:01.861Z,12.68
2022-10-02T16:03:41.821Z,12.61
2022-10-02T16:06:15.649Z,12.42
2022-10-02T16:09:03.852Z,12.40
2022-10-02T16:11:53.850Z,12.34
2022-10-02T16:14:31.181Z,12.17
2022-10-02T16:17:33.319Z,12.10
2022-10-02T16:20:30.977Z,12.05
2022-10-02T16:23:11.986Z,11.97
2022-10-02T16:25:57.246Z,11.91
2022-10-02T16:28:39.425Z,11.55
2022-10-02T16:31:28.456Z,11.70
2022-10-02T16:34:02.544Z,11.55
2022-10-02T16:36:43.298Z,11.46
2022-10-02T16:39:28.476Z,11.34
2022-10-02T16:42:03.269Z,11.27
2022-10-02T16:44:52.909Z,11.16
2022-10-02T16:47:29.166Z,11.10
2022-10-02T16:50:03.672Z,10.92
2022-10-02T16:52:40.444Z,10.92
2022-10-02T16:55:20.130Z,10.77
2022-10-02T16:58:00.575Z,10.73
2022-10-02T17:00:34.809Z,10.57
2022-10-02T17:03:16.686Z,10.45
2022-10-02T17:05:51.078Z,10.44
2022-10-02T17:08:29.888Z,10.42
2022-10-02T17:11:15.756Z,10.37
2022-10-02T17:13:54.547Z,10.35
2022-10-02T17:16:28.731Z,10.22
2022-10-02T17:18:58.329Z,10.16
2022-10-02T17:21:54.538Z,10.15
2022-10-02T17:24:35.002Z,10.05
2022-10-02T17:27:14.542Z,9.93
2022-10-02T17:29:53.878Z,9.89
2022-10-02T17:32:38.697Z,9.85
2022-10-02T17:35:16.811Z,9.79
2022-10-02T17:38:30.092Z,9.77
2022-10-02T17:41:14.564Z,9.52
2022-10-02T17:43:58.366Z,9.61
2022-10-02T17:46:51.486Z,9.58
2022-10-02T17:49:29.902Z,9.47
2022-10-02T17:52:27.018Z,9.49
2022-10-02T17:55:26.803Z,9.44
2022-10-02T17:58:13.552Z,9.42
2022-10-02T18:00:55.241Z,9.38
2022-10-02T18:03:39.845Z,9.34
2022-10-02T18:06:24.941Z,9.31
2022-10-02T18:09:12.906Z,9.25
2022-10-02T18:12:11.499Z,9.25
2022-10-02T18:15:24.847Z,9.20
2022-10-02T18:18:09.322Z,9.14
2022-10-02T18:20:50.332Z,9.17
2022-10-02T18:23:36.742Z,9.13
2022-10-02T18:26:19.076Z,9.12
2022-10-02T18:29:03.721Z,9.15
2022-10-02T18:31:55.842Z,9.18
2022-10-02T18:34:44.790Z,9.09
2022-10-02T18:37:33.028Z,9.09
2022-10-02T18:40:18.396Z,9.10
2022-10-02T18:43:02.205Z,9.11
2022-10-02T18:45:49.649Z,9.11
2022-10-02T18:48:37.595Z,9.09
2022-10-02T18:51:20.531Z,9.09
2022-10-02T18:54:08.172Z,9.07
2022-10-02T18:57:00.206Z,9.02
2022-10-02T18:59:44.121Z,8.97
2022-10-02T19:02:26.299Z,8.95
2022-10-02T19:05:08.841Z,8.94
2022-10-02T19:07:45.198Z,8.89
2022-10-02T19:10:26.654Z,8.88
2022-10-02T19:12:58.320Z,8.87
2022-10-02T19:15:30.504Z,8.85
2022-10-02T19:18:00.997Z,8.81
2022-10-02T19:20:48.368Z,8.81
2022-10-02T19:23:25.667Z,8.74
2022-10-02T19:26:03.040Z,8.63
2022-10-02T19:28:33.376Z,8.75
2022-10-02T19:31:05.431Z,8.67
2022-10-02T19:33:42.202Z,8.69
2022-10-02T19:36:18.143Z,8.64
2022-10-02T19:38:53.134Z,8.61
2022-10-02T19:41:23.131Z,8.58
2022-10-02T19:43:59.095Z,8.58
2022-10-02T19:46:35.782Z,8.51
2022-10-02T19:49:06.059Z,8.50
2022-10-02T19:51:46.933Z,8.44
2022-10-02T19:54:20.711Z,8.32
2022-10-02T19:56:48.815Z,8.26
2022-10-02T19:59:20.159Z,8.27
2022-10-02T20:01:52.768Z,8.12
2022-10-02T20:04:23.777Z,8.23
2022-10-02T20:06:57.824Z,8.17
2022-10-02T20:09:33.143Z,8.23
2022-10-02T20:12:07.328Z,8.25
2022-10-02T20:14:41.571Z,8.21
2022-10-02T20:17:10.772Z,8.20
2022-10-02T20:19:43.658Z,8.18
2022-10-02T20:22:24.207Z,8.14
2022-10-02T20:24:57.783Z,8.10
2022-10-02T20:27:35.142Z,8.08
2022-10-02T20:30:13.304Z,8.04
2022-10-02T20:32:48.556Z,7.94
2022-10-02T20:35:21.648Z,7.97
2022-10-02T20:37:56.375Z,7.96
2022-10-02T20:40:28.470Z,7.90
2022-10-02T20:43:02.120Z,7.93
2022-10-02T20:45:37.716Z,7.90
2022-10-02T20:49:03.005Z,7.88
2022-10-02T20:51:45.039Z,7.87
2022-10-02T20:54:35.586Z,7.83
2022-10-02T20:57:59.695Z,7.83
2022-10-02T21:00:34.429Z,7.80
2022-10-02T21:03:30.736Z,7.77
2022-10-02T21:06:30.519Z,7.74
2022-10-02T21:09:33.632Z,7.69
2022-10-02T21:12:35.604Z,7.67
2022-10-02T21:15:41.597Z,7.56
2022-10-02T21:18:40.660Z,7.59
2022-10-02T21:21:26.875Z,7.58
2022-10-02T21:24:26.435Z,7.55
2022-10-02T21:27:09.952Z,7.51
2022-10-02T21:29:55.097Z,7.50
2022-10-02T21:32:41.038Z,7.45
2022-10-02T21:35:16.939Z,7.43
2022-10-02T21:38:01.091Z,7.40
2022-10-02T21:41:11.562Z,7.31
2022-10-02T21:44:17.982Z,7.33
2022-10-02T21:47:20.512Z,7.29
2022-10-02T21:50:08.126Z,7.26
2022-10-02T21:53:27.652Z,7.23
2022-10-02T21:56:27.501Z,7.19
2022-10-02T21:59:43.068Z,7.13
2022-10-02T22:02:49.241Z,7.08
2022-10-02T22:05:56.345Z,7.04
2022-10-02T22:08:33.852Z,7.07
2022-10-02T22:11:12.418Z,6.91
2022-10-02T22:13:43.300Z,7.01
2022-10-02T22:16:23.937Z,6.95
2022-10-02T22:18:58.410Z,6.82
2022-10-02T22:21:59.122Z,6.88
2022-10-02T22:24:42.123Z,6.88
2022-10-02T22:27:31.615Z,6.82
2022-10-02T22:29:59.966Z,6.90
2022-10-02T22:33:13.765Z,6.91
2022-10-02T22:36:08.367Z,6.90
2022-10-02T22:38:40.749Z,6.88
2022-10-02T22:41:12.927Z,6.77
2022-10-02T22:43:46.621Z,6.83
2022-10-02T22:46:26.460Z,6.81
2022-10-02T22:49:00.463Z,6.79
2022-10-02T22:51:38.343Z,6.71
2022-10-02T22:54:19.160Z,6.67
2022-10-02T22:56:54.479Z,6.71
2022-10-02T22:59:30.832Z,6.70
2022-10-02T23:02:06.266Z,6.62
2022-10-02T23:04:41.274Z,6.64
2022-10-02T23:07:17.477Z,6.63
2022-10-02T23:09:51.959Z,6.65
2022-10-02T23:12:28.086Z,6.58
2022-10-02T23:15:26.375Z,6.45
2022-10-02T23:17:58.299Z,6.63
2022-10-02T23:20:34.419Z,6.62
2022-10-02T23:23:13.853Z,6.61
2022-10-02T23:25:46.598Z,6.62
2022-10-02T23:28:19.473Z,6.58
2022-10-02T23:30:51.941Z,6.58
2022-10-02T23:33:27.027Z,6.65
2022-10-02T23:36:02.777Z,6.63
2022-10-02T23:38:44.594Z,6.61
2022-10-02T23:41:35.890Z,6.57
2022-10-02T23:44:17.404Z,6.52
2022-10-02T23:47:02.543Z,6.49
2022-10-02T23:49:34.974Z,6.41
2022-10-02T23:52:20.938Z,6.42
2022-10-02T23:55:05.727Z,6.38
2022-10-02T23:57:50.524Z,6.31
